Excelsior, Minnesota
Current Conditions -  °F | °C
As of 7:53 PM on Monday 24 Nov 2014 (Local Time) from KFCM Reporting Station
Overcast Overcast  
Wind Chill:   Ceiling: 2500
Heat Index: 18°   Visibility: 10mi
Dew Point: 10°   Wind: 13mph
Humidity: 71%   Direction: 300°WNW
Pressure: 29.8"   Gusts: 20mph
Location:  44.9°N, 93.57°W
Report Text: KFCM 250153Z 30011G17KT 10SM OVC025 M08/M12 A2980 RMK AO2 SLP106 T10781122
Loading
Personal Weather Stations






























Interactive Weather Map New forecast layout! Learn more

10-Day Weather Forecast

Advertisements
Track Severe Weather on mobile